createdAt,value
2022-11-15T00:00:12.097Z,89.14
2022-11-15T00:03:01.382Z,89.46
2022-11-15T00:05:49.446Z,89.50
2022-11-15T00:08:36.792Z,89.83
2022-11-15T00:11:23.641Z,89.79
2022-11-15T00:14:10.799Z,89.69
2022-11-15T00:16:58.447Z,89.63
2022-11-15T00:19:46.781Z,89.72
2022-11-15T00:22:35.291Z,89.72
2022-11-15T00:25:22.476Z,89.73
2022-11-15T00:28:09.937Z,90.03
2022-11-15T00:31:02.428Z,90.24
2022-11-15T00:33:49.655Z,90.16
2022-11-15T00:36:38.205Z,89.81
2022-11-15T00:39:25.466Z,89.99
2022-11-15T00:42:12.808Z,89.91
2022-11-15T00:45:00.371Z,89.62
2022-11-15T00:47:47.560Z,89.86
2022-11-15T00:50:35.179Z,89.84
2022-11-15T00:53:23.739Z,89.92
2022-11-15T00:56:11.369Z,89.67
2022-11-15T00:58:58.761Z,89.66
2022-11-15T01:01:46.037Z,90.10
2022-11-15T01:04:33.546Z,89.55
2022-11-15T01:07:20.798Z,90.08
2022-11-15T01:10:11.105Z,90.22
2022-11-15T01:12:58.524Z,90.02
2022-11-15T01:15:47.301Z,90.15
2022-11-15T01:18:34.367Z,90.13
2022-11-15T01:21:22.661Z,90.26
2022-11-15T01:24:14.022Z,90.30
2022-11-15T01:27:02.984Z,90.33
2022-11-15T01:29:50.088Z,90.39
2022-11-15T01:32:37.254Z,90.21
2022-11-15T01:35:24.838Z,90.20
2022-11-15T01:38:12.044Z,90.06
2022-11-15T01:40:59.028Z,89.86
2022-11-15T01:43:50.984Z,90.13
2022-11-15T01:46:40.076Z,90.17
2022-11-15T01:49:31.132Z,90.10
2022-11-15T01:52:22.828Z,90.20
2022-11-15T01:55:16.573Z,90.17
2022-11-15T01:58:06.790Z,90.26
2022-11-15T02:00:55.788Z,90.22
2022-11-15T02:03:50.883Z,89.66
2022-11-15T02:06:39.573Z,89.97
2022-11-15T02:09:26.528Z,90.26
2022-11-15T02:12:17.176Z,90.29
2022-11-15T02:15:06.424Z,89.66
2022-11-15T02:18:13.698Z,90.14
2022-11-15T02:21:29.690Z,90.56
2022-11-15T02:25:05.312Z,90.39
2022-11-15T02:28:22.817Z,89.96
2022-11-15T02:31:19.894Z,90.48
2022-11-15T02:34:18.808Z,90.49
2022-11-15T02:37:18.034Z,90.43
2022-11-15T02:40:16.828Z,90.38
2022-11-15T02:43:30.121Z,90.62
2022-11-15T02:46:47.276Z,90.74
2022-11-15T02:49:36.846Z,90.85
2022-11-15T02:52:27.215Z,90.83
2022-11-15T02:55:31.100Z,90.78
2022-11-15T02:58:59.871Z,90.59
2022-11-15T03:02:08.324Z,90.72
2022-11-15T03:04:59.756Z,90.55
2022-11-15T03:08:02.060Z,90.18
2022-11-15T03:11:03.478Z,90.36
2022-11-15T03:14:00.914Z,90.42
2022-11-15T03:17:01.848Z,90.45
2022-11-15T03:19:52.673Z,90.44
2022-11-15T03:22:46.395Z,90.20
2022-11-15T03:25:37.084Z,90.30
2022-11-15T03:28:33.737Z,90.13
2022-11-15T03:31:44.448Z,90.01
2022-11-15T03:34:42.518Z,89.89
2022-11-15T03:37:39.323Z,90.13
2022-11-15T03:40:35.578Z,89.78
2022-11-15T03:43:33.301Z,90.03
2022-11-15T03:46:28.338Z,90.14
2022-11-15T03:49:24.386Z,90.24
2022-11-15T03:52:15.448Z,89.90
2022-11-15T03:55:06.763Z,90.21
2022-11-15T03:57:59.600Z,90.20
2022-11-15T04:00:46.801Z,90.15
2022-11-15T04:03:34.598Z,90.02
2022-11-15T04:06:22.129Z,90.32
2022-11-15T04:09:10.738Z,90.37
2022-11-15T04:11:57.957Z,90.47
2022-11-15T04:15:05.501Z,90.54
2022-11-15T04:17:55.087Z,90.54
2022-11-15T04:21:07.947Z,90.49
2022-11-15T04:24:12.934Z,90.75
2022-11-15T04:27:02.080Z,90.84
2022-11-15T04:29:52.140Z,90.86
2022-11-15T04:32:40.635Z,90.96
2022-11-15T04:35:27.955Z,90.72
2022-11-15T04:38:15.002Z,90.66
2022-11-15T04:41:05.902Z,90.60
2022-11-15T04:43:54.760Z,90.70
2022-11-15T04:46:45.083Z,90.68
2022-11-15T04:49:35.477Z,90.74
2022-11-15T04:52:22.910Z,90.74
2022-11-15T04:55:10.578Z,90.75
2022-11-15T04:58:02.069Z,90.66
2022-11-15T05:00:51.036Z,90.64
2022-11-15T05:03:55.667Z,90.59
2022-11-15T05:06:43.150Z,90.90
2022-11-15T05:09:30.838Z,91.12
2022-11-15T05:12:17.821Z,90.96
2022-11-15T05:15:05.670Z,91.10
2022-11-15T05:17:59.377Z,90.99
2022-11-15T05:20:46.677Z,90.96
2022-11-15T05:23:33.880Z,90.89
2022-11-15T05:26:21.548Z,91.00
2022-11-15T05:29:08.805Z,91.06
2022-11-15T05:31:55.682Z,91.19
2022-11-15T05:34:44.258Z,91.35
2022-11-15T05:37:32.890Z,91.27
2022-11-15T05:40:20.148Z,91.21
2022-11-15T05:43:08.216Z,91.22
2022-11-15T05:45:55.751Z,91.34
2022-11-15T05:48:49.300Z,91.35
2022-11-15T05:51:38.580Z,91.46
2022-11-15T05:54:28.626Z,91.44
2022-11-15T05:57:20.637Z,91.46
2022-11-15T06:00:10.448Z,91.62
2022-11-15T06:02:57.258Z,91.52
2022-11-15T06:05:44.651Z,91.28
2022-11-15T06:08:33.262Z,91.44
2022-11-15T06:11:20.668Z,91.61
2022-11-15T06:14:07.940Z,91.40
2022-11-15T06:16:55.363Z,91.65
2022-11-15T06:19:42.707Z,91.69
2022-11-15T06:22:30.614Z,91.73
2022-11-15T06:25:19.696Z,91.70
2022-11-15T06:28:06.920Z,91.74
2022-11-15T06:30:54.582Z,91.55
2022-11-15T06:33:42.309Z,91.40
2022-11-15T06:36:32.463Z,91.73
2022-11-15T06:39:20.093Z,91.98
2022-11-15T06:42:10.733Z,91.69
2022-11-15T06:44:57.778Z,91.79
2022-11-15T06:47:47.889Z,91.79
2022-11-15T06:50:35.176Z,91.58
2022-11-15T06:53:22.583Z,91.86
2022-11-15T06:56:10.256Z,91.55
2022-11-15T06:58:59.451Z,91.69
2022-11-15T07:01:46.625Z,91.52
2022-11-15T07:04:33.869Z,91.68
2022-11-15T07:07:21.603Z,91.67
2022-11-15T07:10:10.415Z,91.69
2022-11-15T07:12:58.389Z,91.52
2022-11-15T07:15:46.635Z,91.47
2022-11-15T07:18:36.668Z,91.65
2022-11-15T07:21:27.564Z,91.56
2022-11-15T07:24:15.419Z,91.43
2022-11-15T07:27:02.799Z,91.57
2022-11-15T07:29:53.147Z,91.56
2022-11-15T07:32:41.609Z,91.58
2022-11-15T07:35:31.470Z,91.26
2022-11-15T07:38:20.582Z,91.42
2022-11-15T07:41:08.730Z,91.54
2022-11-15T07:43:55.845Z,91.45
2022-11-15T07:46:43.030Z,91.63
2022-11-15T07:49:31.647Z,91.68
2022-11-15T07:52:18.806Z,91.69
2022-11-15T07:55:06.680Z,91.63
2022-11-15T07:57:53.682Z,91.69
2022-11-15T08:00:42.072Z,91.22
2022-11-15T08:03:29.655Z,91.55
2022-11-15T08:06:18.886Z,91.30
2022-11-15T08:09:06.181Z,90.85
2022-11-15T08:11:53.997Z,91.23
2022-11-15T08:14:41.030Z,90.89
2022-11-15T08:17:28.720Z,91.12
2022-11-15T08:20:16.876Z,91.18
2022-11-15T08:23:07.040Z,91.02
2022-11-15T08:25:54.325Z,91.38
2022-11-15T08:28:41.440Z,91.15
2022-11-15T08:31:28.369Z,91.23
2022-11-15T08:34:15.577Z,90.99
2022-11-15T08:37:03.767Z,91.08
2022-11-15T08:39:52.424Z,90.70
2022-11-15T08:42:42.910Z,90.97
2022-11-15T08:45:31.164Z,91.02
2022-11-15T08:48:18.300Z,91.05
2022-11-15T08:51:07.155Z,91.27
2022-11-15T08:53:54.388Z,90.95
2022-11-15T08:56:44.274Z,90.24
2022-11-15T08:59:31.587Z,90.78
2022-11-15T09:02:18.971Z,90.27
2022-11-15T09:05:07.685Z,90.74
2022-11-15T09:07:56.100Z,90.40
2022-11-15T09:10:43.164Z,90.17
2022-11-15T09:13:31.668Z,90.62
2022-11-15T09:16:19.381Z,90.62
2022-11-15T09:19:11.713Z,90.38
2022-11-15T09:21:59.509Z,90.11
2022-11-15T09:24:47.757Z,89.96
2022-11-15T09:27:35.002Z,90.34
2022-11-15T09:30:23.571Z,90.25
2022-11-15T09:33:12.367Z,89.77
2022-11-15T09:36:03.658Z,90.45
2022-11-15T09:38:52.830Z,90.34
2022-11-15T09:42:12.323Z,89.62
2022-11-15T09:45:15.502Z,89.33
2022-11-15T09:48:29.900Z,89.61
2022-11-15T09:51:32.789Z,89.77
2022-11-15T09:57:16.443Z,89.77
2022-11-15T10:03:15.368Z,89.62
2022-11-15T10:05:46.967Z,89.18
2022-11-15T10:08:54.892Z,89.55
2022-11-15T10:11:37.368Z,89.17
2022-11-15T10:14:16.128Z,89.14
2022-11-15T10:17:32.782Z,89.45
2022-11-15T10:20:14.927Z,89.49
2022-11-15T10:22:49.589Z,89.40
2022-11-15T10:25:23.299Z,89.23
2022-11-15T10:28:04.043Z,88.82
2022-11-15T10:30:36.446Z,89.25
2022-11-15T10:33:32.176Z,89.44
2022-11-15T10:36:27.794Z,89.34
2022-11-15T10:38:59.722Z,89.33
2022-11-15T10:41:45.084Z,88.70
2022-11-15T10:44:29.535Z,88.70
2022-11-15T10:47:43.392Z,89.24
2022-11-15T10:50:43.384Z,89.15
2022-11-15T10:53:26.932Z,88.66
2022-11-15T10:56:07.980Z,89.24
2022-11-15T10:58:43.613Z,89.43
2022-11-15T11:01:20.230Z,89.50
2022-11-15T11:04:02.754Z,88.71
2022-11-15T11:06:50.239Z,89.15
2022-11-15T11:09:35.359Z,89.32
2022-11-15T11:12:07.171Z,88.84
2022-11-15T11:14:39.363Z,89.08
2022-11-15T11:17:26.832Z,89.48
2022-11-15T11:20:07.262Z,89.57
2022-11-15T11:22:52.933Z,89.43
2022-11-15T11:25:54.084Z,89.20
2022-11-15T11:28:41.729Z,89.63
2022-11-15T11:31:33.675Z,89.42
2022-11-15T11:34:18.193Z,89.74
2022-11-15T11:37:06.646Z,89.47
2022-11-15T11:39:58.700Z,89.46
2022-11-15T11:42:54.576Z,89.42
2022-11-15T11:45:56.239Z,89.63
2022-11-15T11:48:43.501Z,89.51
2022-11-15T11:51:23.031Z,89.48
2022-11-15T11:54:01.415Z,89.51
2022-11-15T11:56:34.954Z,89.57
2022-11-15T11:59:15.000Z,89.78
2022-11-15T12:04:43.026Z,89.64
2022-11-15T12:07:35.504Z,89.92
2022-11-15T12:10:19.435Z,89.70
2022-11-15T12:13:03.159Z,89.74
2022-11-15T12:15:44.325Z,89.56
2022-11-15T12:18:18.634Z,89.92
2022-11-15T12:21:04.689Z,89.46
2022-11-15T12:23:47.679Z,89.47
2022-11-15T12:26:25.436Z,89.95
2022-11-15T12:29:08.814Z,89.99
2022-11-15T12:31:44.766Z,89.89
2022-11-15T12:34:39.246Z,89.77
2022-11-15T12:38:19.574Z,89.65
2022-11-15T12:41:16.663Z,89.41
2022-11-15T12:43:49.592Z,89.55
2022-11-15T12:47:04.333Z,89.98
2022-11-15T12:49:48.505Z,89.77
2022-11-15T12:52:19.151Z,90.04
2022-11-15T12:55:06.297Z,89.93
2022-11-15T12:57:45.542Z,90.43
2022-11-15T13:00:48.176Z,90.27
2022-11-15T13:03:39.586Z,89.94
2022-11-15T13:06:14.917Z,89.98
2022-11-15T13:08:51.896Z,90.10
2022-11-15T13:11:52.199Z,90.02
2022-11-15T13:14:56.141Z,90.07
2022-11-15T13:17:41.264Z,90.05
2022-11-15T13:20:27.726Z,90.04
2022-11-15T13:23:10.007Z,90.05
2022-11-15T13:26:12.199Z,89.99
2022-11-15T13:28:46.775Z,89.75
2022-11-15T13:31:31.421Z,89.77
2022-11-15T13:34:13.618Z,90.02
2022-11-15T13:36:55.054Z,89.98
2022-11-15T13:39:31.967Z,90.08
2022-11-15T13:42:01.067Z,90.43
2022-11-15T13:44:33.496Z,90.20
2022-11-15T13:47:09.326Z,90.43
2022-11-15T13:49:38.864Z,90.21
2022-11-15T13:52:12.640Z,90.12
2022-11-15T13:54:47.561Z,89.88
2022-11-15T13:57:23.634Z,89.76
2022-11-15T13:59:56.079Z,89.70
2022-11-15T14:02:33.028Z,90.11
2022-11-15T14:05:17.847Z,90.27
2022-11-15T14:07:59.290Z,90.20
2022-11-15T14:10:32.734Z,90.32
2022-11-15T14:13:03.615Z,90.10
2022-11-15T14:15:36.573Z,90.21
2022-11-15T14:18:06.742Z,90.45
2022-11-15T14:20:40.418Z,90.34
2022-11-15T14:23:27.655Z,89.85
2022-11-15T14:25:59.294Z,89.57
2022-11-15T14:28:39.122Z,89.58
2022-11-15T14:31:15.398Z,90.09
2022-11-15T14:33:47.514Z,90.13
2022-11-15T14:36:19.703Z,90.23
2022-11-15T14:38:50.447Z,89.69
2022-11-15T14:41:27.451Z,90.05
2022-11-15T14:43:56.328Z,90.04
2022-11-15T14:46:25.437Z,90.02
2022-11-15T14:48:55.973Z,90.23
2022-11-15T14:51:24.923Z,90.15
2022-11-15T14:53:56.453Z,90.38
2022-11-15T14:56:30.368Z,89.64
2022-11-15T14:58:59.568Z,89.56
2022-11-15T15:01:29.093Z,89.34
2022-11-15T15:03:59.295Z,89.82
2022-11-15T15:06:30.110Z,89.56
2022-11-15T15:09:00.323Z,89.65
2022-11-15T15:11:32.619Z,89.35
2022-11-15T15:14:02.355Z,89.30
2022-11-15T15:16:33.974Z,89.19
2022-11-15T15:19:02.819Z,88.75
2022-11-15T15:21:36.777Z,88.70
2022-11-15T15:24:15.907Z,88.67
2022-11-15T15:26:45.085Z,88.64
2022-11-15T15:29:17.051Z,89.34
2022-11-15T15:31:45.738Z,89.59
2022-11-15T15:34:16.943Z,89.69
2022-11-15T15:37:09.763Z,89.35
2022-11-15T15:39:40.303Z,89.17
2022-11-15T15:42:09.218Z,89.17
2022-11-15T15:44:37.990Z,89.35
2022-11-15T15:47:14.265Z,89.61
2022-11-15T15:49:43.284Z,89.61
2022-11-15T15:52:12.693Z,89.35
2022-11-15T15:54:43.632Z,89.44
2022-11-15T15:57:15.851Z,89.00
2022-11-15T15:59:44.578Z,88.52
2022-11-15T16:02:14.974Z,88.54
2022-11-15T16:04:46.078Z,88.69
2022-11-15T16:07:23.148Z,89.17
2022-11-15T16:10:02.615Z,89.12
2022-11-15T16:12:38.958Z,88.74
2022-11-15T16:15:11.090Z,88.66
2022-11-15T16:17:46.047Z,88.72
2022-11-15T16:20:34.414Z,88.95
2022-11-15T16:23:09.120Z,88.89
2022-11-15T16:25:44.621Z,89.23
2022-11-15T16:28:22.160Z,89.23
2022-11-15T16:31:00.754Z,89.68
2022-11-15T16:33:29.574Z,89.59
2022-11-15T16:35:58.549Z,89.18
2022-11-15T16:38:27.672Z,89.23
2022-11-15T16:40:57.758Z,89.34
2022-11-15T16:43:27.301Z,89.01
2022-11-15T16:45:59.953Z,89.46
2022-11-15T16:48:31.216Z,89.23
2022-11-15T16:51:01.361Z,88.77
2022-11-15T16:53:30.014Z,88.39
2022-11-15T16:56:00.221Z,88.27
2022-11-15T16:58:29.005Z,88.13
2022-11-15T17:01:01.456Z,88.46
2022-11-15T17:03:32.069Z,88.86
2022-11-15T17:06:00.913Z,88.28
2022-11-15T17:08:29.705Z,88.30
2022-11-15T17:10:59.858Z,88.30
2022-11-15T17:13:29.041Z,88.40
2022-11-15T17:16:07.236Z,88.27
2022-11-15T17:18:36.530Z,88.19
2022-11-15T17:21:10.045Z,88.90
2022-11-15T17:23:41.501Z,88.75
2022-11-15T17:26:33.018Z,88.83
2022-11-15T17:29:04.542Z,89.00
2022-11-15T17:31:34.158Z,89.05
2022-11-15T17:34:04.533Z,89.33
2022-11-15T17:36:33.629Z,88.69
2022-11-15T17:39:02.298Z,87.93
2022-11-15T17:41:33.115Z,87.64
2022-11-15T17:44:03.725Z,87.48
2022-11-15T17:46:34.120Z,87.75
2022-11-15T17:49:03.342Z,87.63
2022-11-15T17:51:31.920Z,87.66
2022-11-15T17:54:00.572Z,88.04
2022-11-15T17:56:32.148Z,87.39
2022-11-15T17:59:02.118Z,87.43
2022-11-15T18:01:33.523Z,87.60
2022-11-15T18:04:05.179Z,87.75
2022-11-15T18:06:36.350Z,87.74
2022-11-15T18:09:07.317Z,87.89
2022-11-15T18:11:46.737Z,88.33
2022-11-15T18:14:20.869Z,87.86
2022-11-15T18:16:49.921Z,87.55
2022-11-15T18:19:20.379Z,88.04
2022-11-15T18:21:59.284Z,88.23
2022-11-15T18:24:32.274Z,88.34
2022-11-15T18:27:06.549Z,88.61
2022-11-15T18:29:39.996Z,87.82
2022-11-15T18:32:15.175Z,87.61
2022-11-15T18:34:44.042Z,87.11
2022-11-15T18:37:14.651Z,86.61
2022-11-15T18:39:51.123Z,87.07
2022-11-15T18:42:23.863Z,86.95
2022-11-15T18:44:52.475Z,87.05
2022-11-15T18:47:21.122Z,87.27
2022-11-15T18:49:50.810Z,87.75
2022-11-15T18:52:19.957Z,87.29
2022-11-15T18:54:48.985Z,86.88
2022-11-15T18:57:18.182Z,87.09
2022-11-15T18:59:48.375Z,87.42
2022-11-15T19:02:17.270Z,86.57
2022-11-15T19:04:45.957Z,87.06
2022-11-15T19:07:19.438Z,86.47
2022-11-15T19:09:48.336Z,86.32
2022-11-15T19:12:17.052Z,86.66
2022-11-15T19:14:47.259Z,87.01
2022-11-15T19:17:16.098Z,86.85
2022-11-15T19:19:44.701Z,86.83
2022-11-15T19:22:13.488Z,86.87
2022-11-15T19:24:42.199Z,87.11
2022-11-15T19:27:11.171Z,86.80
2022-11-15T19:29:40.648Z,87.03
2022-11-15T19:32:10.847Z,87.50
2022-11-15T19:34:51.959Z,87.61
2022-11-15T19:37:20.976Z,87.63
2022-11-15T19:39:49.860Z,87.48
2022-11-15T19:42:25.295Z,87.49
2022-11-15T19:44:54.727Z,87.80
2022-11-15T19:47:30.464Z,87.76
2022-11-15T19:50:00.399Z,87.30
2022-11-15T19:52:29.829Z,87.90
2022-11-15T19:54:59.033Z,87.33
2022-11-15T19:57:27.990Z,87.01
2022-11-15T19:59:56.892Z,88.09
2022-11-15T20:02:27.183Z,87.37
2022-11-15T20:04:55.809Z,87.87
2022-11-15T20:07:24.609Z,87.27
2022-11-15T20:09:53.928Z,86.73
2022-11-15T20:12:22.559Z,86.51
2022-11-15T20:14:51.246Z,87.00
2022-11-15T20:17:21.127Z,87.42
2022-11-15T20:19:51.167Z,87.77
2022-11-15T20:22:19.726Z,87.96
2022-11-15T20:24:48.350Z,87.91
2022-11-15T20:27:17.460Z,88.02
2022-11-15T20:29:46.121Z,87.99
2022-11-15T20:32:14.798Z,87.81
2022-11-15T20:34:43.443Z,88.19
2022-11-15T20:37:13.568Z,88.30
2022-11-15T20:39:42.265Z,88.07
2022-11-15T20:42:10.874Z,88.66
2022-11-15T20:44:39.533Z,88.60
2022-11-15T20:47:08.441Z,88.02
2022-11-15T20:49:37.108Z,88.33
2022-11-15T20:52:06.152Z,88.47
2022-11-15T20:54:37.012Z,88.96
2022-11-15T20:57:05.676Z,87.94
2022-11-15T20:59:34.964Z,88.21
2022-11-15T21:02:03.879Z,88.11
2022-11-15T21:04:32.725Z,88.13
2022-11-15T21:07:01.672Z,88.94
2022-11-15T21:09:47.907Z,89.01
2022-11-15T21:12:19.165Z,88.62
2022-11-15T21:14:49.093Z,88.22
2022-11-15T21:17:17.961Z,88.67
2022-11-15T21:19:47.774Z,88.89
2022-11-15T21:22:16.832Z,87.93
2022-11-15T21:24:45.449Z,88.23
2022-11-15T21:27:15.483Z,88.07
2022-11-15T21:29:59.129Z,88.63
2022-11-15T21:32:29.375Z,88.47
2022-11-15T21:35:16.851Z,88.92
2022-11-15T21:37:50.584Z,89.17
2022-11-15T21:40:22.234Z,89.28
2022-11-15T21:42:52.861Z,88.32
2022-11-15T21:45:24.170Z,88.49
2022-11-15T21:47:52.907Z,89.50
2022-11-15T21:50:21.774Z,88.42
2022-11-15T21:52:50.329Z,88.20
2022-11-15T21:55:18.982Z,88.57
2022-11-15T21:58:01.862Z,88.96
2022-11-15T22:00:49.984Z,89.28
2022-11-15T22:03:20.340Z,89.47
2022-11-15T22:05:50.275Z,88.67
2022-11-15T22:08:18.895Z,88.49
2022-11-15T22:10:48.199Z,88.52
2022-11-15T22:13:17.041Z,88.84
2022-11-15T22:15:48.480Z,88.70
2022-11-15T22:18:21.081Z,88.24
2022-11-15T22:20:59.014Z,88.24
2022-11-15T22:23:30.289Z,88.24
2022-11-15T22:25:59.667Z,88.15
2022-11-15T22:28:29.208Z,88.15
2022-11-15T22:31:05.155Z,88.08
2022-11-15T22:33:41.567Z,88.17
2022-11-15T22:36:17.131Z,88.30
2022-11-15T22:38:50.504Z,88.30
2022-11-15T22:41:21.141Z,88.20
2022-11-15T22:43:49.887Z,88.34
2022-11-15T22:46:20.038Z,88.48
2022-11-15T22:48:49.010Z,88.15
2022-11-15T22:51:17.722Z,88.33
2022-11-15T22:53:46.425Z,89.06
2022-11-15T22:56:20.121Z,89.76
2022-11-15T22:58:51.822Z,89.97
2022-11-15T23:01:25.132Z,90.15
2022-11-15T23:04:02.814Z,90.67
2022-11-15T23:06:35.598Z,90.38
2022-11-15T23:09:06.436Z,89.87
2022-11-15T23:11:52.319Z,89.22
2022-11-15T23:14:21.116Z,89.17
2022-11-15T23:16:51.359Z,88.91
2022-11-15T23:19:20.103Z,88.66
2022-11-15T23:22:05.985Z,88.46
2022-11-15T23:24:35.229Z,88.60
2022-11-15T23:27:07.534Z,89.26
2022-11-15T23:29:58.514Z,89.41
2022-11-15T23:32:45.931Z,89.55
2022-11-15T23:35:14.690Z,89.38
2022-11-15T23:37:43.518Z,89.76
2022-11-15T23:40:14.011Z,89.45
2022-11-15T23:42:42.786Z,89.84
2022-11-15T23:45:13.111Z,89.57
2022-11-15T23:47:43.315Z,89.51
2022-11-15T23:50:12.785Z,89.45
2022-11-15T23:52:41.545Z,89.97
2022-11-15T23:55:11.223Z,89.25
2022-11-15T23:57:41.730Z,89.52
